Estación Meteorológica Peña el Pijo (Robertgarden) [ 12/17/17 01:38:05 CET ]

Fecha Hora Presion(HPa) Temp (°C) Humedad % Rocio (°C) Viento ( m/s) Direccion Lluvia 1Hora(mm) Lluvia 24H(mm) LLuvia Total(mm)
2017-Dec-03 01:01:50 1009.900 0.5 59 -6.6       1.55 0.00
2017-Dec-03 02:01:47 1010.000 -0.4 60 -7.2       1.55 0.00
2017-Dec-03 03:01:43 1010.000 -0.9 60 -7.7       1.55 0.00
2017-Dec-03 04:01:42 1010.300 -2.6 64 -8.5       1.55 0.00
2017-Dec-03 05:01:43 1010.900 -3.7 68 -8.8       1.55 0.00
2017-Dec-03 06:01:41 1010.500 -3.2 71 -7.7       1.55 0.00
2017-Dec-03 07:01:45 1011.000 -3.9 72 -8.2       1.55 0.00
2017-Dec-03 08:01:38 1011.600 -4.4 74 -8.4       1.55 0.00
2017-Dec-03 09:01:27 1012.500 -4.7 73 -8.8       1.55 0.00
2017-Dec-03 10:01:43 1012.600 0.4 67 -5.0       1.03 0.00
2017-Dec-03 11:01:40 1013.100 5.0 48 -5.2         0.00
2017-Dec-03 12:01:48 1012.800 7.9 34 -7.1         0.00
2017-Dec-03 13:01:49 1012.600 8.4 31 -7.8 2.3 S     0.00
2017-Dec-03 14:01:45 1012.500 10.0 27 -8.3         0.00
2017-Dec-03 15:01:47 1012.200 10.4 26 -8.5         0.00
2017-Dec-03 16:01:41 1012.500 9.7 25 -9.6         0.00
2017-Dec-03 17:01:36 1012.800 6.5 29 -10.3         0.00
2017-Dec-03 18:02:03 1013.600 3.5 38 -9.6         0.00
2017-Dec-03 19:01:44 1014.300 0.4 47 -9.7         0.00
2017-Dec-03 20:01:51 1015.200 -1.2 54 -9.4         0.00
2017-Dec-03 21:01:58 1015.900 -1.9 57 -9.3         0.00
2017-Dec-03 22:01:51 1016.200 -2.1 61 -8.6         0.00
2017-Dec-03 23:01:55 1016.500 -2.4 63 -8.5         0.00

Temperatura Máxima:10°    Temperatura Mínima:-4°
Presión Máxima:1016.500 Hpa    Presión Mínima:1009.900 Hpa


Volver